createdAt,value
2023-04-16T00:02:14.551Z,8.10
2023-04-16T00:04:41.869Z,8.11
2023-04-16T00:07:08.633Z,8.10
2023-04-16T00:09:35.187Z,8.09
2023-04-16T00:12:01.946Z,8.11
2023-04-16T00:14:29.576Z,8.10
2023-04-16T00:16:56.359Z,8.08
2023-04-16T00:19:22.939Z,8.11
2023-04-16T00:21:49.484Z,8.11
2023-04-16T00:24:16.142Z,8.11
2023-04-16T00:26:44.555Z,8.15
2023-04-16T00:29:11.421Z,8.11
2023-04-16T00:31:38.295Z,8.12
2023-04-16T00:34:04.935Z,8.11
2023-04-16T00:36:31.920Z,8.09
2023-04-16T00:38:58.686Z,8.11
2023-04-16T00:41:26.310Z,8.10
2023-04-16T00:43:53.327Z,8.10
2023-04-16T00:46:22.472Z,8.09
2023-04-16T00:48:50.313Z,8.09
2023-04-16T00:51:20.866Z,8.09
2023-04-16T00:53:47.986Z,8.07
2023-04-16T00:56:14.686Z,8.05
2023-04-16T00:58:41.430Z,8.06
2023-04-16T01:01:08.333Z,8.06
2023-04-16T01:03:39.733Z,8.06
2023-04-16T01:06:07.722Z,8.07
2023-04-16T01:08:34.684Z,8.06
2023-04-16T01:11:01.555Z,8.05
2023-04-16T01:13:28.293Z,8.04
2023-04-16T01:15:54.907Z,8.05
2023-04-16T01:18:22.918Z,8.05
2023-04-16T01:20:51.591Z,8.05
2023-04-16T01:23:18.858Z,8.04
2023-04-16T01:25:46.608Z,8.03
2023-04-16T01:28:13.596Z,8.02
2023-04-16T01:30:40.286Z,8.03
2023-04-16T01:33:08.229Z,8.03
2023-04-16T01:35:34.818Z,8.03
2023-04-16T01:38:01.597Z,8.02
2023-04-16T01:40:28.731Z,8.02
2023-04-16T01:42:55.504Z,8.02
2023-04-16T01:45:22.209Z,8.03
2023-04-16T01:47:51.000Z,8.02
2023-04-16T01:50:18.722Z,8.03
2023-04-16T01:52:45.941Z,8.03
2023-04-16T01:55:12.916Z,8.05
2023-04-16T01:57:42.410Z,8.02
2023-04-16T02:00:09.414Z,8.04
2023-04-16T02:02:36.541Z,8.05
2023-04-16T02:05:03.517Z,8.05
2023-04-16T02:07:31.739Z,8.07
2023-04-16T02:09:58.449Z,8.09
2023-04-16T02:12:26.245Z,8.11
2023-04-16T02:14:52.897Z,8.11
2023-04-16T02:17:19.479Z,8.12
2023-04-16T02:19:46.472Z,8.15
2023-04-16T02:22:13.198Z,8.13
2023-04-16T02:24:39.771Z,8.15
2023-04-16T02:27:06.504Z,8.15
2023-04-16T02:29:33.110Z,8.16
2023-04-16T02:31:59.944Z,8.16
2023-04-16T02:34:26.586Z,8.17
2023-04-16T02:36:54.320Z,8.17
2023-04-16T02:39:21.045Z,8.20
2023-04-16T02:41:47.611Z,8.21
2023-04-16T02:44:14.169Z,8.21
2023-04-16T02:46:41.413Z,8.22
2023-04-16T02:49:08.261Z,8.22
2023-04-16T02:51:34.996Z,8.22
2023-04-16T02:54:10.402Z,8.24
2023-04-16T02:56:37.801Z,8.24
2023-04-16T02:59:04.424Z,8.23
2023-04-16T03:01:31.082Z,8.21
2023-04-16T03:03:57.851Z,8.23
2023-04-16T03:06:24.392Z,8.22
2023-04-16T03:08:51.231Z,8.23
2023-04-16T03:11:17.888Z,8.24
2023-04-16T03:13:44.433Z,8.25
2023-04-16T03:16:11.286Z,8.25
2023-04-16T03:18:37.978Z,8.26
2023-04-16T03:21:05.083Z,8.25
2023-04-16T03:23:31.733Z,8.25
2023-04-16T03:25:58.259Z,8.26
2023-04-16T03:28:24.834Z,8.26
2023-04-16T03:30:52.766Z,8.25
2023-04-16T03:33:20.776Z,8.24
2023-04-16T03:38:41.500Z,8.24
2023-04-16T03:41:10.139Z,8.25
2023-04-16T03:43:36.915Z,8.25
2023-04-16T03:46:03.662Z,8.25
2023-04-16T03:48:30.550Z,8.24
2023-04-16T03:50:57.257Z,8.23
2023-04-16T03:53:23.915Z,8.23
2023-04-16T03:55:51.692Z,8.23
2023-04-16T03:58:18.706Z,8.24
2023-04-16T04:00:45.453Z,8.22
2023-04-16T04:03:12.262Z,8.23
2023-04-16T04:05:43.236Z,8.23
2023-04-16T04:08:09.971Z,8.23
2023-04-16T04:10:37.936Z,8.23
2023-04-16T04:13:06.414Z,8.23
2023-04-16T04:15:33.011Z,8.23
2023-04-16T04:17:59.949Z,8.23
2023-04-16T04:20:26.705Z,8.24
2023-04-16T04:22:53.297Z,8.24
2023-04-16T04:25:19.911Z,8.25
2023-04-16T04:27:46.592Z,8.25
2023-04-16T04:30:13.169Z,8.26
2023-04-16T04:32:39.883Z,8.26
2023-04-16T04:35:07.024Z,8.26
2023-04-16T04:37:33.490Z,8.28
2023-04-16T04:40:00.351Z,8.28
2023-04-16T04:42:27.317Z,8.24
2023-04-16T04:44:53.946Z,8.23
2023-04-16T04:47:20.523Z,8.22
2023-04-16T04:49:47.136Z,8.22
2023-04-16T04:52:14.209Z,8.23
2023-04-16T04:54:41.886Z,8.23
2023-04-16T04:57:08.818Z,8.24
2023-04-16T04:59:35.410Z,8.23
2023-04-16T05:02:03.632Z,8.23
2023-04-16T05:04:31.386Z,8.23
2023-04-16T05:06:57.977Z,8.22
2023-04-16T05:09:24.626Z,8.23
2023-04-16T05:11:51.362Z,8.23
2023-04-16T05:14:17.870Z,8.25
2023-04-16T05:16:44.420Z,8.23
2023-04-16T05:19:11.370Z,8.23
2023-04-16T05:21:38.164Z,8.23
2023-04-16T05:24:04.808Z,8.24
2023-04-16T05:26:31.359Z,8.24
2023-04-16T05:28:58.385Z,8.26
2023-04-16T05:31:25.223Z,8.25
2023-04-16T05:33:51.871Z,8.25
2023-04-16T05:36:18.448Z,8.23
2023-04-16T05:38:45.171Z,8.24
2023-04-16T05:44:06.321Z,8.25
2023-04-16T05:46:32.898Z,8.26
2023-04-16T05:48:59.568Z,8.27
2023-04-16T05:54:22.241Z,8.28
2023-04-16T05:56:48.996Z,8.30
2023-04-16T05:59:15.743Z,8.32
2023-04-16T06:04:37.371Z,8.30
2023-04-16T06:07:05.620Z,8.29
2023-04-16T06:09:34.767Z,8.29
2023-04-16T06:12:01.485Z,8.29
2023-04-16T06:14:28.163Z,8.31
2023-04-16T06:16:54.757Z,8.31
2023-04-16T06:19:21.481Z,8.32
2023-04-16T06:21:47.966Z,8.33
2023-04-16T06:24:14.608Z,8.35
2023-04-16T06:26:41.181Z,8.34
2023-04-16T06:29:08.013Z,8.35
2023-04-16T06:31:34.982Z,8.35
2023-04-16T06:34:02.159Z,8.37
2023-04-16T06:36:29.196Z,8.40
2023-04-16T06:38:56.083Z,8.44
2023-04-16T06:41:25.771Z,8.53
2023-04-16T06:43:52.539Z,8.63
2023-04-16T06:46:19.223Z,8.66
2023-04-16T06:48:46.294Z,8.67
2023-04-16T06:51:13.602Z,8.77
2023-04-16T06:53:40.481Z,8.82
2023-04-16T06:56:07.394Z,8.90
2023-04-16T06:58:34.123Z,9.02
2023-04-16T07:01:02.667Z,8.98
2023-04-16T07:03:29.467Z,9.04
2023-04-16T07:05:57.271Z,9.13
2023-04-16T07:08:24.769Z,9.20
2023-04-16T07:10:52.801Z,9.21
2023-04-16T07:13:19.604Z,9.20
2023-04-16T07:15:46.385Z,9.20
2023-04-16T07:18:13.010Z,9.37
2023-04-16T07:20:39.795Z,9.43
2023-04-16T07:23:06.452Z,9.42
2023-04-16T07:25:33.145Z,9.38
2023-04-16T07:27:59.729Z,9.43
2023-04-16T07:30:32.901Z,9.51
2023-04-16T07:33:00.327Z,9.57
2023-04-16T07:35:27.135Z,9.55
2023-04-16T07:37:53.782Z,9.60
2023-04-16T07:40:20.402Z,9.57
2023-04-16T07:42:47.148Z,9.62
2023-04-16T07:45:13.783Z,9.57
2023-04-16T07:47:40.653Z,9.64
2023-04-16T07:50:08.461Z,9.68
2023-04-16T07:52:35.317Z,9.70
2023-04-16T07:55:02.217Z,9.68
2023-04-16T07:57:28.854Z,9.63
2023-04-16T07:59:55.853Z,9.69
2023-04-16T08:02:22.845Z,9.69
2023-04-16T08:04:49.611Z,9.74
2023-04-16T08:07:16.522Z,9.75
2023-04-16T08:09:51.005Z,9.65
2023-04-16T08:12:23.040Z,9.65
2023-04-16T08:14:49.701Z,9.79
2023-04-16T08:17:16.740Z,9.72
2023-04-16T08:19:47.339Z,9.81
2023-04-16T08:22:19.304Z,9.80
2023-04-16T08:24:46.164Z,9.79
2023-04-16T08:27:19.337Z,9.83
2023-04-16T08:29:48.004Z,9.91
2023-04-16T08:32:14.651Z,9.91
2023-04-16T08:34:42.295Z,9.92
2023-04-16T08:37:09.638Z,9.99
2023-04-16T08:39:36.369Z,10.10
2023-04-16T08:48:12.460Z,10.04
2023-04-16T08:50:40.869Z,10.02
2023-04-16T08:56:09.848Z,10.09
2023-04-16T08:58:38.432Z,10.25
2023-04-16T09:01:06.412Z,10.18
2023-04-16T09:03:35.753Z,10.07
2023-04-16T09:06:04.643Z,10.17
2023-04-16T09:08:32.381Z,10.21
2023-04-16T09:11:36.469Z,10.20
2023-04-16T09:14:03.954Z,10.29
2023-04-16T09:16:34.200Z,10.30
2023-04-16T09:19:01.159Z,10.31
2023-04-16T09:21:28.049Z,10.25
2023-04-16T09:23:55.439Z,10.25
2023-04-16T09:26:22.714Z,10.26
2023-04-16T09:28:51.367Z,10.40
2023-04-16T09:31:24.543Z,10.31
2023-04-16T09:34:06.066Z,10.32
2023-04-16T09:36:33.689Z,10.43
2023-04-16T09:39:01.319Z,10.31
2023-04-16T09:41:33.010Z,10.43
2023-04-16T09:44:04.553Z,10.47
2023-04-16T09:46:36.243Z,10.50
2023-04-16T09:49:10.235Z,10.46
2023-04-16T09:51:49.741Z,10.46
2023-04-16T09:54:16.741Z,10.46
2023-04-16T09:56:47.090Z,10.56
2023-04-16T09:59:18.948Z,10.58
2023-04-16T10:01:47.460Z,10.51
2023-04-16T10:04:14.186Z,10.52
2023-04-16T10:06:41.104Z,10.59
2023-04-16T10:09:11.273Z,10.61
2023-04-16T10:11:38.395Z,10.62
2023-04-16T10:14:05.205Z,10.64
2023-04-16T10:16:33.035Z,10.62
2023-04-16T10:19:00.425Z,10.71
2023-04-16T10:21:34.036Z,10.65
2023-04-16T10:24:01.894Z,10.68
2023-04-16T10:26:30.138Z,10.72
2023-04-16T10:28:58.885Z,10.67
2023-04-16T10:31:27.350Z,10.66
2023-04-16T10:33:55.002Z,10.57
2023-04-16T10:36:26.702Z,10.68
2023-04-16T10:38:58.415Z,10.76
2023-04-16T10:41:26.910Z,10.59
2023-04-16T10:44:04.067Z,10.66
2023-04-16T10:46:33.757Z,10.71
2023-04-16T10:49:01.907Z,10.71
2023-04-16T10:51:33.188Z,10.76
2023-04-16T10:54:14.620Z,10.72
2023-04-16T10:56:41.336Z,10.78
2023-04-16T10:59:10.898Z,10.84
2023-04-16T11:01:42.838Z,10.67
2023-04-16T11:04:23.978Z,10.78
2023-04-16T11:07:14.971Z,10.89
2023-04-16T11:10:03.770Z,10.87
2023-04-16T11:12:35.908Z,10.95
2023-04-16T11:15:06.467Z,10.94
2023-04-16T11:17:38.927Z,10.97
2023-04-16T11:20:19.080Z,10.97
2023-04-16T11:22:54.099Z,10.97
2023-04-16T11:25:28.079Z,11.00
2023-04-16T11:27:55.050Z,11.17
2023-04-16T11:30:34.201Z,11.11
2023-04-16T11:33:11.937Z,11.19
2023-04-16T11:35:39.704Z,11.21
2023-04-16T11:38:07.709Z,11.15
2023-04-16T11:40:35.617Z,11.12
2023-04-16T11:43:16.240Z,11.14
2023-04-16T11:46:10.337Z,11.09
2023-04-16T11:48:52.698Z,11.04
2023-04-16T11:51:23.743Z,11.05
2023-04-16T11:53:53.238Z,11.15
2023-04-16T11:56:28.882Z,11.17
2023-04-16T11:59:17.126Z,11.12
2023-04-16T12:01:48.576Z,11.07
2023-04-16T12:04:16.755Z,11.19
2023-04-16T12:07:11.330Z,11.15
2023-04-16T12:09:40.745Z,11.19
2023-04-16T12:12:26.679Z,11.31
2023-04-16T12:14:54.697Z,11.31
2023-04-16T12:17:21.738Z,11.41
2023-04-16T12:19:51.093Z,11.51
2023-04-16T12:22:18.303Z,11.55
2023-04-16T12:24:44.917Z,11.53
2023-04-16T12:27:11.792Z,11.34
2023-04-16T12:29:38.779Z,11.48
2023-04-16T12:32:05.548Z,11.42
2023-04-16T12:34:49.045Z,11.37
2023-04-16T12:37:16.586Z,11.51
2023-04-16T12:39:43.221Z,11.53
2023-04-16T12:42:11.486Z,11.51
2023-04-16T12:44:38.468Z,11.42
2023-04-16T12:47:05.657Z,11.40
2023-04-16T12:49:32.419Z,11.29
2023-04-16T12:51:59.408Z,11.33
2023-04-16T12:54:29.178Z,11.46
2023-04-16T12:56:55.883Z,11.44
2023-04-16T12:59:22.672Z,11.57
2023-04-16T13:01:49.197Z,11.62
2023-04-16T13:04:17.974Z,11.58
2023-04-16T13:06:45.834Z,11.61
2023-04-16T13:09:12.562Z,11.65
2023-04-16T13:12:50.225Z,11.69
2023-04-16T13:15:18.969Z,11.70
2023-04-16T13:17:46.177Z,11.57
2023-04-16T13:20:12.970Z,11.65
2023-04-16T13:22:39.645Z,11.70
2023-04-16T13:25:06.886Z,11.58
2023-04-16T13:27:33.509Z,11.66
2023-04-16T13:30:00.188Z,11.72
2023-04-16T13:32:27.023Z,11.70
2023-04-16T13:34:53.904Z,11.67
2023-04-16T13:37:20.555Z,11.51
2023-04-16T13:39:47.637Z,11.55
2023-04-16T13:42:14.458Z,11.58
2023-04-16T13:44:41.354Z,11.68
2023-04-16T13:47:08.345Z,11.62
2023-04-16T13:49:36.150Z,11.65
2023-04-16T13:52:05.837Z,11.65
2023-04-16T13:54:32.580Z,11.68
2023-04-16T13:56:59.349Z,11.62
2023-04-16T13:59:26.645Z,11.68
2023-04-16T14:01:53.734Z,11.66
2023-04-16T14:04:22.362Z,11.65
2023-04-16T14:06:50.180Z,11.69
2023-04-16T14:09:16.750Z,11.73
2023-04-16T14:11:43.637Z,11.74
2023-04-16T14:14:10.367Z,11.91
2023-04-16T14:16:37.210Z,11.97
2023-04-16T14:19:03.998Z,11.98
2023-04-16T14:21:31.439Z,11.95
2023-04-16T14:23:57.992Z,11.94
2023-04-16T14:26:24.657Z,11.97
2023-04-16T14:28:51.373Z,11.89
2023-04-16T14:31:18.964Z,11.98
2023-04-16T14:33:46.131Z,11.99
2023-04-16T14:36:12.881Z,12.12
2023-04-16T14:38:40.466Z,12.08
2023-04-16T14:41:07.212Z,12.11
2023-04-16T14:43:34.330Z,12.25
2023-04-16T14:46:00.987Z,12.14
2023-04-16T14:48:27.815Z,12.09
2023-04-16T14:50:54.564Z,12.04
2023-04-16T14:53:24.263Z,12.00
2023-04-16T14:55:53.278Z,12.19
2023-04-16T14:58:19.820Z,12.07
2023-04-16T15:03:40.865Z,12.23
2023-04-16T15:06:08.766Z,12.22
2023-04-16T15:08:35.492Z,12.10
2023-04-16T15:11:02.096Z,12.22
2023-04-16T15:13:33.824Z,12.27
2023-04-16T15:16:01.480Z,12.35
2023-04-16T15:18:29.250Z,12.20
2023-04-16T15:20:56.188Z,12.37
2023-04-16T15:23:23.221Z,12.35
2023-04-16T15:25:57.491Z,12.31
2023-04-16T15:28:24.114Z,12.37
2023-04-16T15:33:47.457Z,12.50
2023-04-16T15:36:14.697Z,12.39
2023-04-16T15:38:41.905Z,12.32
2023-04-16T15:44:04.094Z,12.30
2023-04-16T15:46:30.930Z,12.19
2023-04-16T15:48:57.906Z,12.18
2023-04-16T15:54:19.261Z,12.20
2023-04-16T15:56:46.988Z,12.20
2023-04-16T15:59:13.844Z,12.30
2023-04-16T16:07:29.039Z,12.30
2023-04-16T16:09:58.499Z,12.32
2023-04-16T16:12:25.130Z,12.23
2023-04-16T16:14:51.991Z,12.29
2023-04-16T16:17:20.379Z,12.31
2023-04-16T16:19:47.186Z,12.13
2023-04-16T16:22:14.196Z,12.08
2023-04-16T16:24:40.802Z,12.01
2023-04-16T16:27:07.524Z,12.07
2023-04-16T16:29:34.213Z,12.02
2023-04-16T16:32:01.256Z,11.98
2023-04-16T16:34:28.335Z,11.95
2023-04-16T16:36:55.129Z,12.01
2023-04-16T16:39:24.429Z,11.87
2023-04-16T16:41:57.846Z,11.77
2023-04-16T16:44:24.528Z,11.62
2023-04-16T16:46:51.683Z,11.74
2023-04-16T16:49:18.578Z,11.75
2023-04-16T16:51:46.648Z,11.71
2023-04-16T16:54:13.489Z,11.75
2023-04-16T16:56:41.484Z,11.73
2023-04-16T16:59:09.228Z,11.70
2023-04-16T17:01:36.184Z,11.67
2023-04-16T17:04:02.908Z,11.62
2023-04-16T17:06:29.785Z,11.55
2023-04-16T17:08:56.450Z,11.50
2023-04-16T17:11:22.998Z,11.58
2023-04-16T17:13:49.636Z,11.47
2023-04-16T17:16:17.675Z,11.45
2023-04-16T17:18:45.927Z,11.39
2023-04-16T17:21:14.029Z,11.37
2023-04-16T17:23:41.770Z,11.33
2023-04-16T17:26:08.331Z,11.34
2023-04-16T17:28:35.127Z,11.14
2023-04-16T17:31:02.928Z,11.15
2023-04-16T17:33:29.718Z,11.09
2023-04-16T17:35:56.548Z,11.09
2023-04-16T17:38:23.127Z,11.18
2023-04-16T17:40:49.912Z,11.12
2023-04-16T17:43:16.675Z,11.09
2023-04-16T17:45:43.591Z,10.94
2023-04-16T17:48:10.518Z,11.01
2023-04-16T17:50:39.356Z,11.02
2023-04-16T17:53:06.430Z,11.06
2023-04-16T17:55:33.019Z,10.99
2023-04-16T17:58:07.362Z,10.96
2023-04-16T18:00:34.040Z,10.99
2023-04-16T18:03:00.835Z,10.95
2023-04-16T18:05:27.696Z,10.88
2023-04-16T18:07:55.527Z,10.87
2023-04-16T18:10:22.385Z,10.96
2023-04-16T18:12:49.112Z,10.90
2023-04-16T18:15:15.768Z,10.83
2023-04-16T18:17:42.851Z,10.83
2023-04-16T18:20:11.750Z,10.71
2023-04-16T18:22:38.385Z,10.67
2023-04-16T18:25:05.385Z,10.64
2023-04-16T18:27:32.377Z,10.76
2023-04-16T18:29:59.462Z,10.71
2023-04-16T18:32:30.857Z,10.70
2023-04-16T18:34:58.098Z,10.71
2023-04-16T18:37:24.665Z,10.75
2023-04-16T18:39:51.242Z,10.76
2023-04-16T18:42:17.777Z,10.71
2023-04-16T18:44:47.912Z,10.64
2023-04-16T18:47:14.442Z,10.69
2023-04-16T18:49:41.296Z,10.57
2023-04-16T18:52:08.126Z,10.50
2023-04-16T18:57:29.080Z,10.41
2023-04-16T18:59:55.965Z,10.43
2023-04-16T19:02:22.717Z,10.42
2023-04-16T19:04:49.386Z,10.49
2023-04-16T19:07:16.331Z,10.49
2023-04-16T19:09:43.053Z,10.42
2023-04-16T19:12:12.866Z,10.33
2023-04-16T19:14:39.748Z,10.36
2023-04-16T19:17:06.702Z,10.40
2023-04-16T19:19:33.408Z,10.35
2023-04-16T19:22:00.649Z,10.38
2023-04-16T19:24:27.541Z,10.43
2023-04-16T19:26:54.577Z,10.35
2023-04-16T19:29:21.248Z,10.30
2023-04-16T19:31:47.915Z,10.22
2023-04-16T19:34:15.793Z,10.11
2023-04-16T19:36:42.641Z,10.23
2023-04-16T19:39:09.798Z,10.28
2023-04-16T19:41:37.035Z,10.15
2023-04-16T19:44:03.883Z,10.17
2023-04-16T19:46:30.478Z,10.14
2023-04-16T19:48:57.254Z,10.16
2023-04-16T19:51:26.441Z,10.07
2023-04-16T19:53:53.507Z,10.04
2023-04-16T19:56:20.289Z,10.10
2023-04-16T19:58:47.076Z,10.02
2023-04-16T20:01:13.901Z,10.07
2023-04-16T20:03:40.534Z,9.96
2023-04-16T20:06:08.004Z,9.93
2023-04-16T20:08:34.746Z,9.91
2023-04-16T20:11:01.658Z,9.88
2023-04-16T20:13:28.617Z,9.69
2023-04-16T20:15:55.232Z,9.70
2023-04-16T20:18:22.376Z,9.64
2023-04-16T20:20:49.152Z,9.64
2023-04-16T20:23:15.665Z,9.57
2023-04-16T20:25:43.104Z,9.47
2023-04-16T20:28:10.359Z,9.41
2023-04-16T20:30:39.413Z,9.41
2023-04-16T20:33:06.820Z,9.36
2023-04-16T20:35:34.394Z,9.30
2023-04-16T20:38:01.353Z,9.28
2023-04-16T20:40:30.727Z,9.18
2023-04-16T20:43:00.215Z,9.14
2023-04-16T20:45:32.335Z,9.15
2023-04-16T20:47:59.955Z,9.03
2023-04-16T20:50:26.701Z,9.04
2023-04-16T20:52:53.308Z,9.05
2023-04-16T20:55:20.160Z,9.07
2023-04-16T20:57:47.059Z,9.07
2023-04-16T21:00:15.599Z,9.05
2023-04-16T21:02:43.128Z,9.04
2023-04-16T21:05:13.867Z,9.04
2023-04-16T21:07:41.638Z,8.99
2023-04-16T21:10:09.907Z,8.95
2023-04-16T21:12:37.476Z,8.86
2023-04-16T21:15:04.967Z,8.81
2023-04-16T21:17:31.875Z,8.79
2023-04-16T21:19:58.710Z,8.77
2023-04-16T21:22:25.728Z,8.75
2023-04-16T21:24:52.324Z,8.77
2023-04-16T21:27:18.909Z,8.77
2023-04-16T21:29:45.595Z,8.73
2023-04-16T21:32:12.257Z,8.72
2023-04-16T21:34:38.894Z,8.69
2023-04-16T21:37:05.472Z,8.60
2023-04-16T21:39:32.106Z,8.59
2023-04-16T21:41:58.794Z,8.56
2023-04-16T21:44:25.415Z,8.55
2023-04-16T21:46:52.093Z,8.57
2023-04-16T21:49:18.838Z,8.60
2023-04-16T21:51:46.347Z,8.61
2023-04-16T21:54:13.311Z,8.63
2023-04-16T21:56:39.937Z,8.59
2023-04-16T21:59:06.648Z,8.56
2023-04-16T22:01:33.514Z,8.54
2023-04-16T22:04:03.144Z,8.51
2023-04-16T22:06:29.761Z,8.51
2023-04-16T22:08:58.846Z,8.50
2023-04-16T22:11:25.446Z,8.47
2023-04-16T22:13:52.137Z,8.46
2023-04-16T22:16:18.665Z,8.43
2023-04-16T22:18:46.436Z,8.41
2023-04-16T22:21:13.098Z,8.41
2023-04-16T22:23:39.745Z,8.39
2023-04-16T22:26:06.367Z,8.38
2023-04-16T22:28:33.032Z,8.36
2023-04-16T22:30:59.797Z,8.35
2023-04-16T22:33:29.737Z,8.34
2023-04-16T22:35:56.457Z,8.29
2023-04-16T22:38:23.138Z,8.29
2023-04-16T22:40:49.849Z,8.30
2023-04-16T22:43:17.651Z,8.24
2023-04-16T22:48:40.226Z,8.21
2023-04-16T22:54:02.566Z,8.19
2023-04-16T22:56:31.168Z,8.20
2023-04-16T22:58:57.785Z,8.21
2023-04-16T23:04:18.810Z,8.23
2023-04-16T23:06:46.387Z,8.26
2023-04-16T23:09:13.542Z,8.29
2023-04-16T23:11:40.582Z,8.32
2023-04-16T23:14:08.360Z,8.34
2023-04-16T23:16:35.046Z,8.33
2023-04-16T23:19:01.588Z,8.27
2023-04-16T23:21:28.199Z,8.27
2023-04-16T23:23:55.802Z,8.24
2023-04-16T23:26:22.462Z,8.22
2023-04-16T23:28:48.975Z,8.20
2023-04-16T23:31:15.602Z,8.19
2023-04-16T23:33:42.365Z,8.19
2023-04-16T23:36:09.398Z,8.18
2023-04-16T23:38:35.882Z,8.17
2023-04-16T23:41:02.528Z,8.20
2023-04-16T23:43:29.086Z,8.22
2023-04-16T23:45:58.432Z,8.25
2023-04-16T23:48:25.257Z,8.29
2023-04-16T23:50:51.899Z,8.29
2023-04-16T23:53:18.853Z,8.21
2023-04-16T23:55:45.450Z,8.19
2023-04-16T23:58:12.038Z,8.19
